createdAt,value
2023-05-14T00:00:30.072Z,16.37
2023-05-14T00:15:34.732Z,12.50
2023-05-14T00:30:39.709Z,13.03
2023-05-14T00:45:44.649Z,13.40
2023-05-14T01:00:49.147Z,13.83
2023-05-14T01:15:56.990Z,13.50
2023-05-14T01:31:07.793Z,13.57
2023-05-14T01:46:12.850Z,16.47
2023-05-14T02:01:17.554Z,17.03
2023-05-14T02:16:22.119Z,17.80
2023-05-14T02:31:29.199Z,17.37
2023-05-14T02:46:34.680Z,14.77
2023-05-14T03:01:39.972Z,16.07
2023-05-14T03:16:45.129Z,19.07
2023-05-14T03:31:50.550Z,18.37
2023-05-14T03:46:54.959Z,21.33
2023-05-14T04:01:59.931Z,21.13
2023-05-14T04:17:04.742Z,21.30
2023-05-14T04:32:09.550Z,22.40
2023-05-14T04:47:14.031Z,21.20
2023-05-14T05:02:18.547Z,22.80
2023-05-14T05:17:22.978Z,24.03
2023-05-14T05:32:27.623Z,28.83
2023-05-14T05:47:32.155Z,29.47
2023-05-14T06:15:37.676Z,24.38
2023-05-14T06:30:42.169Z,24.53
2023-05-14T06:45:49.862Z,27.50
2023-05-14T07:00:54.337Z,26.63
2023-05-14T07:15:58.948Z,37.47
2023-05-14T07:31:08.803Z,41.13
2023-05-14T07:46:13.871Z,37.53
2023-05-14T08:01:18.554Z,35.83
2023-05-14T08:16:26.135Z,37.73
2023-05-14T08:31:30.804Z,33.67
2023-05-14T08:46:37.310Z,30.73
2023-05-14T09:01:47.673Z,28.30
2023-05-14T09:16:52.954Z,31.30
2023-05-14T09:31:58.644Z,27.07
2023-05-14T09:47:04.362Z,27.43
2023-05-14T10:02:17.725Z,23.90
2023-05-14T10:17:23.186Z,31.60
2023-05-14T10:32:29.012Z,26.30
2023-05-14T10:47:34.571Z,26.50
2023-05-14T11:02:40.713Z,25.20
2023-05-14T11:17:47.819Z,22.80
2023-05-14T11:32:54.398Z,22.10
2023-05-14T11:47:59.058Z,24.90
2023-05-14T12:03:03.793Z,18.87
2023-05-14T12:18:23.526Z,19.37
2023-05-14T12:33:29.368Z,21.70
2023-05-14T12:48:34.038Z,17.10
2023-05-14T13:03:38.604Z,14.00
2023-05-14T13:18:43.073Z,12.93
2023-05-14T13:33:47.535Z,10.93
2023-05-14T13:48:51.992Z,8.00
2023-05-14T14:03:56.480Z,6.20
2023-05-14T14:19:01.056Z,4.43
2023-05-14T14:34:06.164Z,3.93
2023-05-14T14:49:10.712Z,3.63
2023-05-14T15:04:15.345Z,3.00
2023-05-14T15:19:19.867Z,2.90
2023-05-14T15:34:24.433Z,3.27
2023-05-14T15:49:29.043Z,3.30
2023-05-14T16:04:33.750Z,3.27
2023-05-14T16:19:39.158Z,3.67
2023-05-14T16:34:49.536Z,4.00
2023-05-14T16:49:54.045Z,2.87
2023-05-14T17:04:58.601Z,2.87
2023-05-14T17:20:05.938Z,5.10
2023-05-14T17:35:11.660Z,3.53
2023-05-14T17:50:16.247Z,3.17
2023-05-14T18:05:20.949Z,4.17
2023-05-14T18:20:25.550Z,3.63
2023-05-14T18:35:30.164Z,4.20
2023-05-14T18:50:34.671Z,25.37
2023-05-14T19:05:39.377Z,5.00
2023-05-14T19:20:46.330Z,4.27
2023-05-14T19:35:55.037Z,5.80
2023-05-14T19:50:59.766Z,5.60
2023-05-14T20:06:04.870Z,7.60
2023-05-14T20:21:09.245Z,5.37
2023-05-14T20:36:13.710Z,6.17
2023-05-14T20:51:18.037Z,6.07
2023-05-14T21:06:22.423Z,7.40
2023-05-14T21:21:27.008Z,7.37
2023-05-14T21:36:31.521Z,8.43
2023-05-14T21:51:35.964Z,8.30
2023-05-14T22:06:40.460Z,9.20
2023-05-14T22:21:44.961Z,7.73
2023-05-14T22:36:49.383Z,9.03
2023-05-14T22:51:54.243Z,8.80
2023-05-14T23:06:59.080Z,9.53
2023-05-14T23:22:03.566Z,11.03
2023-05-14T23:37:08.141Z,10.40
2023-05-14T23:52:12.579Z,10.60
